Time;durP1;ratioP1;P1;durP2;ratioP2;P2;SDS_P1;SDS_P2;PMS_P1;PMS_P2;Temp;Humidity;BMP_temperature;BMP_pressure;BME280_temperature;BME280_humidity;BME280_pressure;Samples;Min_cycle;Max_cycle;Signal;HPM_P1;HPM_P2
2022/12/02 00:00:19;;;;;;;7.60;6.90;;;4.90;99.90;;;;;;5071233;28;20202;-72
2022/12/02 00:02:47;;;;;;;7.07;6.38;;;4.90;99.90;;;;;;5071903;28;20225;-72
2022/12/02 00:05:29;;;;;;;8.40;6.82;;;4.90;99.90;;;;;;5071859;28;20190;-72
2022/12/02 00:07:59;;;;;;;7.63;6.93;;;4.80;99.90;;;;;;5069535;28;20302;-72
2022/12/02 00:10:27;;;;;;;7.07;6.38;;;4.80;99.90;;;;;;5070668;28;20696;-73
2022/12/02 00:12:55;;;;;;;7.28;6.57;;;4.80;99.90;;;;;;5068313;28;20532;-72
2022/12/02 00:15:37;;;;;;;7.03;6.35;;;4.80;99.90;;;;;;5070819;28;20221;-72
2022/12/02 00:18:06;;;;;;;5.53;5.03;;;4.80;99.90;;;;;;5071477;28;20222;-72
2022/12/02 00:20:33;;;;;;;6.15;5.55;;;4.70;99.90;;;;;;5074807;28;20225;-73
2022/12/02 00:23:00;;;;;;;6.35;5.75;;;4.70;99.90;;;;;;5078785;28;20225;-73
2022/12/02 00:25:27;;;;;;;6.25;5.65;;;4.80;99.90;;;;;;5069112;28;20782;-75
2022/12/02 00:27:54;;;;;;;6.63;6.03;;;4.80;99.90;;;;;;5070572;28;20726;-75
2022/12/02 00:30:21;;;;;;;7.68;6.97;;;4.70;99.90;;;;;;5069713;28;20195;-72
2022/12/02 00:32:48;;;;;;;7.25;6.57;;;4.60;99.90;;;;;;5069751;28;20241;-72
2022/12/02 00:35:17;;;;;;;6.70;6.10;;;4.60;99.90;;;;;;5071942;28;20206;-73
2022/12/02 00:37:44;;;;;;;6.55;5.97;;;4.50;99.90;;;;;;5067665;28;20229;-74
2022/12/02 00:40:12;;;;;;;7.05;6.45;;;4.50;99.90;;;;;;5069767;28;20194;-75
2022/12/02 00:42:39;;;;;;;6.53;5.93;;;4.60;99.90;;;;;;5069501;28;20210;-73
2022/12/02 00:47:57;;;;;;;6.07;5.47;;;4.60;99.90;;;;;;5072201;28;20304;-74
2022/12/02 00:50:26;;;;;;;5.85;5.35;;;4.60;99.90;;;;;;5067036;28;20229;-74
2022/12/02 00:52:53;;;;;;;6.78;6.15;;;4.60;99.90;;;;;;5068596;28;20688;-74
2022/12/02 00:55:20;;;;;;;6.20;5.63;;;4.70;99.90;;;;;;5067430;28;20642;-74
2022/12/02 00:57:47;;;;;;;6.65;6.00;;;4.70;99.90;;;;;;5066283;28;20223;-74
2022/12/02 01:00:15;;;;;;;6.70;5.95;;;4.70;99.90;;;;;;5068838;28;20186;-74
2022/12/02 01:02:42;;;;;;;6.22;5.63;;;4.80;99.90;;;;;;5068062;28;20210;-74
2022/12/02 01:05:10;;;;;;;6.38;5.88;;;4.80;99.90;;;;;;5071752;28;20186;-72
2022/12/02 01:07:38;;;;;;;6.10;5.60;;;4.90;99.90;;;;;;5068761;28;20504;-74
2022/12/02 01:10:06;;;;;;;6.80;6.15;;;4.90;99.90;;;;;;5066414;28;20186;-75
2022/12/02 01:12:34;;;;;;;6.18;5.60;;;4.90;99.90;;;;;;5067945;28;20735;-74
2022/12/02 01:15:01;;;;;;;6.72;6.13;;;4.90;99.90;;;;;;5074156;28;20190;-75
2022/12/02 01:17:28;;;;;;;6.53;5.95;;;4.90;99.90;;;;;;5078473;28;20214;-74
2022/12/02 01:19:55;;;;;;;7.15;6.55;;;4.90;99.90;;;;;;5066477;28;20205;-74
2022/12/02 01:22:22;;;;;;;5.70;5.15;;;4.80;99.90;;;;;;5068255;28;20431;-74
2022/12/02 01:24:50;;;;;;;7.10;6.50;;;4.80;99.90;;;;;;5068850;28;20209;-75
2022/12/02 01:27:18;;;;;;;6.07;5.30;;;4.70;99.90;;;;;;5069324;28;20217;-74
2022/12/02 01:29:45;;;;;;;6.00;5.45;;;4.60;99.90;;;;;;5070710;28;20221;-75
2022/12/02 01:32:12;;;;;;;6.70;6.10;;;4.60;99.90;;;;;;5068971;28;20222;-74
2022/12/02 01:34:40;;;;;;;7.22;6.28;;;4.60;99.90;;;;;;5068336;28;20233;-75
2022/12/02 01:37:07;;;;;;;6.32;5.82;;;4.60;99.90;;;;;;5069672;28;20214;-75
2022/12/02 01:39:34;;;;;;;6.40;5.80;;;4.60;99.90;;;;;;5065616;28;20608;-75
2022/12/02 01:42:03;;;;;;;7.00;6.38;;;4.60;99.90;;;;;;5070767;28;20703;-74
2022/12/02 01:44:30;;;;;;;6.68;6.18;;;4.50;99.90;;;;;;5071226;28;20644;-75
2022/12/02 01:46:58;;;;;;;6.25;5.75;;;4.50;99.90;;;;;;5068258;28;20219;-74
2022/12/02 01:49:25;;;;;;;5.93;5.43;;;4.40;99.90;;;;;;5066005;28;20289;-74
2022/12/02 01:51:53;;;;;;;5.63;5.13;;;4.50;99.90;;;;;;5067319;28;20228;-76
2022/12/02 01:54:20;;;;;;;5.82;5.32;;;4.50;99.90;;;;;;5068312;28;20584;-73
2022/12/02 01:56:47;;;;;;;5.75;5.25;;;4.60;99.90;;;;;;5067508;28;20217;-75
2022/12/02 01:59:17;;;;;;;5.45;5.00;;;4.60;99.90;;;;;;5069537;28;20203;-74
2022/12/02 02:01:44;;;;;;;6.10;5.60;;;4.60;99.90;;;;;;5067970;28;20349;-74
2022/12/02 02:04:12;;;;;;;6.10;5.60;;;4.60;99.90;;;;;;5071239;28;20201;-74
2022/12/02 02:06:42;;;;;;;6.30;5.80;;;4.60;99.90;;;;;;5069597;28;20224;-74
2022/12/02 02:09:10;;;;;;;6.07;5.68;;;4.60;99.90;;;;;;5069783;28;20569;-75
2022/12/02 02:11:40;;;;;;;5.47;5.07;;;4.60;99.90;;;;;;5082887;28;20222;-74
2022/12/02 02:14:09;;;;;;;6.18;5.65;;;4.60;99.90;;;;;;5065039;28;20228;-74
2022/12/02 02:16:39;;;;;;;5.72;5.32;;;4.60;99.90;;;;;;5067456;28;20756;-74
2022/12/02 02:19:10;;;;;;;6.00;5.50;;;4.60;99.90;;;;;;5066051;28;20709;-74
2022/12/02 02:21:45;;;;;;;5.68;5.28;;;4.60;99.90;;;;;;5068063;28;20222;-75
2022/12/02 02:24:14;;;;;;;5.75;5.20;;;4.60;99.90;;;;;;5066447;28;20186;-74
2022/12/02 02:26:41;;;;;;;5.90;5.40;;;4.50;99.90;;;;;;5068776;28;20214;-74
2022/12/02 02:29:08;;;;;;;6.25;5.75;;;4.50;99.90;;;;;;5067045;28;20199;-75
2022/12/02 02:31:35;;;;;;;5.53;5.03;;;4.50;99.90;;;;;;5067805;28;20226;-74
2022/12/02 02:34:03;;;;;;;6.07;5.65;;;4.50;99.90;;;;;;5067838;28;20274;-75
2022/12/02 02:36:30;;;;;;;6.38;5.88;;;4.50;99.90;;;;;;5067804;28;20696;-74
2022/12/02 02:38:57;;;;;;;6.70;6.10;;;4.50;99.90;;;;;;5064573;28;20224;-73
2022/12/02 02:41:26;;;;;;;6.75;6.15;;;4.50;99.90;;;;;;5069431;28;20222;-74
2022/12/02 02:43:54;;;;;;;6.22;5.72;;;4.50;99.90;;;;;;5067700;28;20207;-75
2022/12/02 02:46:21;;;;;;;6.65;5.88;;;4.50;99.90;;;;;;5066937;28;20218;-73
2022/12/02 02:48:50;;;;;;;6.97;6.38;;;4.50;99.90;;;;;;5067592;28;20194;-74
2022/12/02 02:51:18;;;;;;;5.45;5.05;;;4.50;99.90;;;;;;5069517;28;20654;-74
2022/12/02 02:53:45;;;;;;;6.88;6.28;;;4.50;99.90;;;;;;5067190;28;20222;-74
2022/12/02 02:56:13;;;;;;;6.50;5.90;;;4.50;99.90;;;;;;5064586;28;20225;-74
2022/12/02 02:58:41;;;;;;;5.88;5.38;;;4.50;99.90;;;;;;5067194;28;20191;-75
2022/12/02 03:01:13;;;;;;;5.95;5.45;;;4.50;99.90;;;;;;5067936;28;20218;-74
2022/12/02 03:03:44;;;;;;;6.45;5.95;;;4.50;99.90;;;;;;5066554;28;20195;-74
2022/12/02 03:06:13;;;;;;;6.03;5.53;;;4.50;99.90;;;;;;5077351;28;20226;-74
2022/12/02 03:08:45;;;;;;;6.20;5.70;;;4.50;99.90;;;;;;5066587;28;20197;-75
2022/12/02 03:11:12;;;;;;;5.97;5.47;;;4.50;99.90;;;;;;5064709;28;20217;-73
2022/12/02 03:13:43;;;;;;;5.53;5.13;;;4.50;99.90;;;;;;5067641;28;20210;-74
2022/12/02 03:16:12;;;;;;;6.15;5.65;;;4.50;99.90;;;;;;5063186;28;20229;-74
2022/12/02 03:18:41;;;;;;;5.93;5.43;;;4.50;99.90;;;;;;5068448;28;20608;-75
2022/12/02 03:21:09;;;;;;;5.35;4.95;;;4.50;99.90;;;;;;5065783;28;20218;-74
2022/12/02 03:23:37;;;;;;;5.75;5.28;;;4.50;99.90;;;;;;5066703;28;20680;-74
2022/12/02 03:26:05;;;;;;;5.20;4.80;;;4.50;99.90;;;;;;5067388;28;20228;-75
2022/12/02 03:28:33;;;;;;;5.40;5.00;;;4.60;99.90;;;;;;5070630;28;20202;-73
2022/12/02 03:31:01;;;;;;;6.22;5.72;;;4.60;99.90;;;;;;5067091;28;20226;-74
2022/12/02 03:33:29;;;;;;;6.43;5.93;;;4.60;99.90;;;;;;5067519;28;20692;-75
2022/12/02 03:35:57;;;;;;;5.30;4.90;;;4.60;99.90;;;;;;5071499;28;20306;-75
2022/12/02 03:38:24;;;;;;;5.63;5.18;;;4.60;99.90;;;;;;5070988;28;20744;-74
2022/12/02 03:40:51;;;;;;;5.90;5.40;;;4.60;99.90;;;;;;5069095;28;20222;-75
2022/12/02 03:43:18;;;;;;;6.53;6.03;;;4.60;99.90;;;;;;5068393;28;20201;-74
2022/12/02 03:45:46;;;;;;;6.45;5.80;;;4.50;99.90;;;;;;5071186;28;20194;-74
2022/12/02 03:48:19;;;;;;;6.40;5.78;;;4.50;99.90;;;;;;5071101;28;20191;-74
2022/12/02 03:50:46;;;;;;;6.20;5.70;;;4.40;99.90;;;;;;5067160;28;20271;-75
2022/12/02 03:53:14;;;;;;;7.43;6.72;;;4.40;99.90;;;;;;5070244;28;20273;-75
2022/12/02 03:55:41;;;;;;;6.50;6.00;;;4.40;99.90;;;;;;5069087;28;20217;-74
2022/12/02 03:58:09;;;;;;;6.53;5.93;;;4.30;99.90;;;;;;5069438;28;20837;-74
2022/12/02 04:00:37;;;;;;;5.65;5.18;;;4.30;99.90;;;;;;5086177;28;20214;-74
2022/12/02 04:03:04;;;;;;;6.68;5.32;;;4.30;99.90;;;;;;5067672;28;20907;-74
2022/12/02 04:05:33;;;;;;;6.70;6.15;;;4.30;99.90;;;;;;5070692;28;20191;-74
2022/12/02 04:08:00;;;;;;;5.72;5.30;;;4.30;99.90;;;;;;5069865;28;20240;-73
2022/12/02 04:10:27;;;;;;;6.07;5.57;;;4.30;99.90;;;;;;5069206;28;20218;-74
2022/12/02 04:12:54;;;;;;;6.18;5.68;;;4.30;99.90;;;;;;5069665;28;20727;-74
2022/12/02 04:15:22;;;;;;;6.68;6.00;;;4.30;99.90;;;;;;5067642;28;20583;-75
2022/12/02 04:17:49;;;;;;;6.18;5.68;;;4.30;99.90;;;;;;5069163;28;20304;-74
2022/12/02 04:20:16;;;;;;;5.75;5.35;;;4.30;99.90;;;;;;5067259;28;20194;-74
2022/12/02 04:22:44;;;;;;;5.47;5.00;;;4.30;99.90;;;;;;5069926;28;20219;-74
2022/12/02 04:25:11;;;;;;;6.20;5.70;;;4.30;99.90;;;;;;5071668;28;20201;-74
2022/12/02 04:27:38;;;;;;;6.18;5.65;;;4.30;99.90;;;;;;5068268;28;20210;-75
2022/12/02 04:30:07;;;;;;;6.32;5.80;;;4.30;99.90;;;;;;5069703;28;20190;-75
2022/12/02 04:32:34;;;;;;;5.55;5.03;;;4.30;99.90;;;;;;5069476;28;20699;-72
2022/12/02 04:35:01;;;;;;;6.72;5.45;;;4.30;99.90;;;;;;5069103;28;20214;-74
2022/12/02 04:37:28;;;;;;;6.32;5.82;;;4.30;99.90;;;;;;5069468;28;20226;-75
2022/12/02 04:39:57;;;;;;;6.18;5.72;;;4.30;99.90;;;;;;5068356;28;20577;-75
2022/12/02 04:42:24;;;;;;;6.47;5.97;;;4.30;99.90;;;;;;5068796;28;20684;-74
2022/12/02 04:44:51;;;;;;;6.15;5.65;;;4.30;99.90;;;;;;5068027;28;20653;-74
2022/12/02 04:47:18;;;;;;;6.20;5.70;;;4.20;99.90;;;;;;5069477;28;20283;-73
2022/12/02 04:49:45;;;;;;;5.78;5.38;;;4.20;99.90;;;;;;5070452;28;20198;-76
2022/12/02 04:52:12;;;;;;;6.05;5.55;;;4.20;99.90;;;;;;5068853;28;20236;-75
2022/12/02 04:54:39;;;;;;;6.57;5.97;;;4.30;99.90;;;;;;5080486;28;20189;-76
2022/12/02 04:57:08;;;;;;;5.63;5.22;;;4.30;99.90;;;;;;5075587;28;20218;-74
2022/12/02 04:59:35;;;;;;;5.75;5.25;;;4.30;99.90;;;;;;5069176;28;20572;-75
2022/12/02 05:02:02;;;;;;;5.70;5.20;;;4.30;99.90;;;;;;5067493;28;20603;-74
2022/12/02 05:04:29;;;;;;;5.85;5.43;;;4.30;99.90;;;;;;5068200;28;20206;-74
2022/12/02 05:06:56;;;;;;;6.20;5.70;;;4.30;99.90;;;;;;5069478;28;20218;-74
2022/12/02 05:09:23;;;;;;;5.68;5.28;;;4.30;99.90;;;;;;5068172;28;20244;-75
2022/12/02 05:11:50;;;;;;;6.78;6.15;;;4.30;99.90;;;;;;5066961;28;20232;-74
2022/12/02 05:14:19;;;;;;;5.78;5.38;;;4.30;99.90;;;;;;5068741;28;20190;-75
2022/12/02 05:16:46;;;;;;;6.60;6.05;;;4.30;99.90;;;;;;5073969;28;20222;-74
2022/12/02 05:19:13;;;;;;;6.28;5.88;;;4.30;99.90;;;;;;5070471;28;20205;-75
2022/12/02 05:21:40;;;;;;;5.88;5.38;;;4.30;99.90;;;;;;5069535;28;20218;-75
2022/12/02 05:24:07;;;;;;;6.13;5.63;;;4.30;99.90;;;;;;5069847;28;20206;-74
2022/12/02 05:26:34;;;;;;;6.30;5.80;;;4.20;99.90;;;;;;5064979;28;20222;-74
2022/12/02 05:29:02;;;;;;;6.15;5.63;;;4.20;99.90;;;;;;5068391;28;20194;-74
2022/12/02 05:31:30;;;;;;;5.60;5.20;;;4.20;99.90;;;;;;5068582;28;20736;-75
2022/12/02 05:33:57;;;;;;;5.30;4.80;;;4.20;99.90;;;;;;5069803;28;20198;-74
2022/12/02 05:36:24;;;;;;;6.35;5.75;;;4.30;99.90;;;;;;5068955;28;20242;-75
2022/12/02 05:38:51;;;;;;;6.78;6.18;;;4.20;99.90;;;;;;5069689;28;20205;-77
2022/12/02 05:41:18;;;;;;;5.85;5.45;;;4.20;99.90;;;;;;5073396;28;20731;-76
2022/12/02 05:43:45;;;;;;;5.78;5.28;;;4.20;99.90;;;;;;5068916;28;20195;-75
2022/12/02 05:46:15;;;;;;;6.88;6.35;;;4.30;99.90;;;;;;5068013;28;20381;-74
2022/12/02 05:48:44;;;;;;;5.55;5.15;;;4.30;99.90;;;;;;5068134;28;20202;-73
2022/12/02 05:51:13;;;;;;;5.93;5.43;;;4.30;99.90;;;;;;5079370;28;20221;-75
2022/12/02 05:53:41;;;;;;;6.97;6.38;;;4.30;99.90;;;;;;5068129;28;20669;-75
2022/12/02 05:56:12;;;;;;;5.88;5.47;;;4.30;99.90;;;;;;5069019;28;20218;-75
2022/12/02 05:58:40;;;;;;;5.95;5.55;;;4.30;99.90;;;;;;5068097;28;20202;-75
2022/12/02 06:01:20;;;;;;;6.18;5.63;;;4.30;99.90;;;;;;5070221;28;20229;-74
2022/12/02 06:03:49;;;;;;;6.13;5.63;;;4.40;99.90;;;;;;5067851;28;20683;-75
2022/12/02 06:06:16;;;;;;;5.75;5.35;;;4.30;99.90;;;;;;5068753;28;20222;-75
2022/12/02 06:08:43;;;;;;;5.88;5.47;;;4.30;99.90;;;;;;5071314;28;20194;-75
2022/12/02 06:11:28;;;;;;;6.25;5.75;;;4.40;99.90;;;;;;5069748;28;20762;-75
2022/12/02 06:13:58;;;;;;;6.45;5.85;;;4.30;99.90;;;;;;5071054;28;20258;-74
2022/12/02 06:16:28;;;;;;;6.28;5.78;;;4.30;99.90;;;;;;5070134;28;20226;-75
2022/12/02 06:18:59;;;;;;;6.85;6.28;;;4.30;99.90;;;;;;5070908;28;20552;-75
2022/12/02 06:21:28;;;;;;;6.32;5.82;;;4.30;99.90;;;;;;5070674;28;20218;-75
2022/12/02 06:23:58;;;;;;;5.95;5.45;;;4.30;99.90;;;;;;5071417;28;20679;-74
2022/12/02 06:26:25;;;;;;;6.72;6.13;;;4.30;99.90;;;;;;5068184;28;20226;-76
2022/12/02 06:28:58;;;;;;;6.80;6.22;;;4.30;99.90;;;;;;5070969;28;20198;-75
2022/12/02 06:31:30;;;;;;;7.38;6.78;;;4.30;99.90;;;;;;5069225;28;20236;-75
2022/12/02 06:34:00;;;;;;;7.50;6.90;;;4.30;99.90;;;;;;5072747;28;20261;-74
2022/12/02 06:36:31;;;;;;;8.05;7.45;;;4.30;99.90;;;;;;5073193;28;20230;-75
2022/12/02 06:39:02;;;;;;;7.60;6.90;;;4.30;99.90;;;;;;5073657;28;20251;-74
2022/12/02 06:41:32;;;;;;;7.70;7.10;;;4.30;99.90;;;;;;5066279;28;20223;-75
2022/12/02 06:46:48;;;;;;;7.50;6.72;;;4.30;99.90;;;;;;5045607;28;20275;-73
2022/12/02 06:49:20;;;;;;;7.03;6.43;;;4.30;99.90;;;;;;5068442;28;20194;-76
2022/12/02 06:51:47;;;;;;;7.22;6.63;;;4.40;99.90;;;;;;5068782;28;20237;-73
2022/12/02 06:54:20;;;;;;;7.38;6.80;;;4.40;99.90;;;;;;5069461;28;20201;-75
2022/12/02 06:56:48;;;;;;;6.93;6.43;;;4.40;99.90;;;;;;5065987;28;20663;-76
2022/12/02 06:59:20;;;;;;;8.07;7.38;;;4.50;99.90;;;;;;5063821;28;20205;-73
2022/12/02 07:01:48;;;;;;;7.57;6.88;;;4.50;99.90;;;;;;5069367;28;20266;-74
2022/12/02 07:04:36;;;;;;;8.02;7.43;;;4.50;99.90;;;;;;5067075;28;20193;-76
2022/12/02 07:07:16;;;;;;;7.55;6.95;;;4.50;99.90;;;;;;5066056;28;20822;-75
2022/12/02 07:09:45;;;;;;;8.25;7.65;;;4.40;99.90;;;;;;5071580;28;20603;-74
2022/12/02 07:12:15;;;;;;;8.43;7.75;;;4.30;99.90;;;;;;5068801;28;20233;-75
2022/12/02 07:14:46;;;;;;;7.30;6.70;;;4.30;99.90;;;;;;5070184;28;20190;-74
2022/12/02 07:17:26;;;;;;;7.60;7.00;;;4.30;99.90;;;;;;5070980;28;20225;-75
2022/12/02 07:20:00;;;;;;;7.80;7.20;;;4.30;99.90;;;;;;5069823;28;20214;-76
2022/12/02 07:22:32;;;;;;;8.73;7.82;;;4.30;99.90;;;;;;5065248;28;20232;-75
2022/12/02 07:25:24;;;;;;;10.45;9.45;;;4.30;99.90;;;;;;5061264;28;20236;-74
2022/12/02 07:27:51;;;;;;;10.13;9.23;;;4.40;99.90;;;;;;5070508;28;20214;-75
2022/12/02 07:30:23;;;;;;;9.98;9.18;;;4.40;99.90;;;;;;5065794;28;20199;-75
2022/12/02 07:32:50;;;;;;;9.52;8.73;;;4.40;99.90;;;;;;5068715;28;20226;-75
2022/12/02 07:35:18;;;;;;;10.70;9.68;;;4.40;99.90;;;;;;5070719;28;20194;-75
2022/12/02 07:37:46;;;;;;;10.25;9.25;;;4.40;99.90;;;;;;5077703;28;20522;-74
2022/12/02 07:40:15;;;;;;;10.70;9.80;;;4.50;99.90;;;;;;5072943;28;20548;-74
2022/12/02 07:42:42;;;;;;;11.20;10.15;;;4.50;99.90;;;;;;5069100;28;20220;-75
2022/12/02 07:45:10;;;;;;;11.13;10.13;;;4.60;99.90;;;;;;5069609;28;20198;-73
2022/12/02 07:47:37;;;;;;;10.35;9.35;;;4.50;99.90;;;;;;5069594;28;20214;-75
2022/12/02 07:50:06;;;;;;;9.38;8.57;;;4.60;99.90;;;;;;5070774;28;20463;-75
2022/12/02 07:52:34;;;;;;;9.77;8.88;;;4.60;99.90;;;;;;5070000;28;20720;-73
2022/12/02 07:55:02;;;;;;;8.73;7.93;;;4.60;99.90;;;;;;5070204;28;20199;-75
2022/12/02 07:57:29;;;;;;;9.10;8.30;;;4.50;99.90;;;;;;5069964;28;20246;-74
2022/12/02 07:59:56;;;;;;;9.02;8.23;;;4.60;99.90;;;;;;5070060;28;20202;-73
2022/12/02 08:02:23;;;;;;;8.18;7.43;;;4.60;99.90;;;;;;5064028;28;20218;-75
2022/12/02 08:04:50;;;;;;;8.57;7.88;;;4.70;99.90;;;;;;5059204;28;20605;-75
2022/12/02 08:07:17;;;;;;;9.25;8.45;;;4.80;99.90;;;;;;5049975;28;20219;-75
2022/12/02 08:09:45;;;;;;;10.55;9.65;;;4.90;99.90;;;;;;5046434;28;20199;-75
2022/12/02 08:12:13;;;;;;;10.90;9.80;;;5.00;99.90;;;;;;5061906;28;20708;-75
2022/12/02 08:14:40;;;;;;;11.13;10.23;;;4.90;99.90;;;;;;5068747;28;20637;-77
2022/12/02 08:17:07;;;;;;;10.35;9.35;;;4.80;99.90;;;;;;5064105;28;20251;-75
2022/12/02 08:19:34;;;;;;;9.80;8.88;;;4.80;99.90;;;;;;5069765;28;20206;-75
2022/12/02 08:22:01;;;;;;;9.45;8.65;;;4.80;99.90;;;;;;5061066;28;20222;-74
2022/12/02 08:24:28;;;;;;;9.80;8.90;;;4.80;99.90;;;;;;5053257;28;20654;-75
2022/12/02 08:26:57;;;;;;;8.38;7.68;;;4.90;99.90;;;;;;5050809;28;20234;-74
2022/12/02 08:29:24;;;;;;;9.63;8.73;;;5.00;99.90;;;;;;5050179;28;20199;-74
2022/12/02 08:31:51;;;;;;;8.35;7.65;;;5.00;99.90;;;;;;5051647;28;20237;-75
2022/12/02 08:34:18;;;;;;;8.68;7.97;;;5.00;99.90;;;;;;5056071;28;20206;-74
2022/12/02 08:36:45;;;;;;;8.98;8.23;;;5.00;99.90;;;;;;5043361;28;20229;-75
2022/12/02 08:39:12;;;;;;;8.32;7.57;;;5.00;99.90;;;;;;5053116;28;20203;-75
2022/12/02 08:41:39;;;;;;;8.95;8.23;;;5.10;99.90;;;;;;5050409;28;20222;-75
2022/12/02 08:44:08;;;;;;;8.88;8.07;;;5.10;99.90;;;;;;5049551;28;20708;-75
2022/12/02 08:46:36;;;;;;;9.50;8.63;;;5.10;99.90;;;;;;5052272;28;20226;-75
2022/12/02 08:49:05;;;;;;;9.40;8.60;;;5.10;99.90;;;;;;5051704;28;20201;-75
2022/12/02 08:51:32;;;;;;;9.10;8.32;;;5.10;99.90;;;;;;5047053;28;20284;-75
2022/12/02 08:53:59;;;;;;;9.57;8.77;;;5.00;99.90;;;;;;5052833;28;20203;-74
2022/12/02 08:56:26;;;;;;;9.80;9.00;;;5.00;99.90;;;;;;5057646;28;20596;-75
2022/12/02 08:58:53;;;;;;;8.77;8.05;;;5.00;99.90;;;;;;5069534;28;20198;-75
2022/12/02 09:01:22;;;;;;;8.18;7.47;;;5.00;99.90;;;;;;5065024;28;20276;-76
2022/12/02 09:03:49;;;;;;;9.60;8.70;;;5.10;99.90;;;;;;5046343;28;20321;-75
2022/12/02 09:06:16;;;;;;;64.45;11.02;;;5.10;99.90;;;;;;5056517;28;20222;-74
2022/12/02 09:08:43;;;;;;;9.48;8.57;;;5.10;99.90;;;;;;5069467;28;20217;-74
2022/12/02 09:11:10;;;;;;;9.52;8.73;;;5.10;99.90;;;;;;5071438;28;20643;-74
2022/12/02 09:13:37;;;;;;;8.52;7.82;;;5.10;99.90;;;;;;5071078;28;20206;-73
2022/12/02 09:16:05;;;;;;;9.38;8.57;;;5.20;99.90;;;;;;5060644;28;20222;-75
2022/12/02 09:18:33;;;;;;;8.85;8.15;;;5.20;99.90;;;;;;5065944;28;20194;-73
2022/12/02 09:21:01;;;;;;;9.48;8.68;;;5.20;99.90;;;;;;5057194;28;20288;-74
2022/12/02 09:23:29;;;;;;;9.60;8.68;;;5.20;99.90;;;;;;5065592;28;20668;-75
2022/12/02 09:25:56;;;;;;;9.23;8.52;;;5.10;99.90;;;;;;5071340;28;20302;-74
2022/12/02 09:28:24;;;;;;;9.40;8.40;;;5.10;99.90;;;;;;5082990;28;20197;-75
2022/12/02 09:30:51;;;;;;;10.10;9.30;;;5.10;99.90;;;;;;5066237;28;20219;-74
2022/12/02 09:33:18;;;;;;;8.77;8.05;;;5.10;99.90;;;;;;5071447;28;20205;-76
2022/12/02 09:35:47;;;;;;;9.90;9.10;;;5.20;99.90;;;;;;5070712;28;20198;-73
2022/12/02 09:38:14;;;;;;;9.13;8.27;;;5.20;99.90;;;;;;5072017;28;20705;-75
2022/12/02 09:40:41;;;;;;;8.98;8.18;;;5.20;99.90;;;;;;5070060;28;20225;-75
2022/12/02 09:43:08;;;;;;;10.48;9.52;;;5.20;99.90;;;;;;5066449;28;20209;-75
2022/12/02 09:45:35;;;;;;;9.65;8.85;;;5.20;99.90;;;;;;5071479;28;20652;-74
2022/12/02 09:48:02;;;;;;;10.13;9.23;;;5.20;99.90;;;;;;5071443;28;20202;-75
2022/12/02 09:50:29;;;;;;;10.07;9.18;;;5.20;99.90;;;;;;5071281;28;20225;-75
2022/12/02 09:53:07;;;;;;;9.68;8.73;;;5.20;99.90;;;;;;5070556;28;20218;-74
2022/12/02 09:55:36;;;;;;;9.18;8.40;;;5.30;99.90;;;;;;5071012;28;20680;-75
2022/12/02 09:58:12;;;;;;;10.20;9.15;;;5.30;99.90;;;;;;5070695;28;20218;-76
2022/12/02 10:00:39;;;;;;;8.88;8.18;;;5.40;99.90;;;;;;5067440;28;20221;-74
2022/12/02 10:03:07;;;;;;;8.88;8.18;;;5.50;99.90;;;;;;5067397;28;20203;-75
2022/12/02 10:05:36;;;;;;;9.75;8.85;;;5.60;99.90;;;;;;5062320;28;20289;-74
2022/12/02 10:08:08;;;;;;;8.50;7.80;;;5.70;99.90;;;;;;5066718;28;20237;-74
2022/12/02 10:10:39;;;;;;;10.27;9.23;;;5.80;99.90;;;;;;5060771;28;20217;-75
2022/12/02 10:13:06;;;;;;;9.18;8.48;;;5.80;99.90;;;;;;5070860;28;20234;-75
2022/12/02 10:15:33;;;;;;;11.43;9.85;;;5.80;99.90;;;;;;5070289;28;20210;-73
2022/12/02 10:18:07;;;;;;;9.65;8.77;;;5.90;99.90;;;;;;5064600;28;20225;-76
2022/12/02 10:20:35;;;;;;;9.85;8.95;;;5.80;99.90;;;;;;5066669;28;20217;-74
2022/12/02 10:23:09;;;;;;;10.40;9.50;;;5.90;99.90;;;;;;5076636;28;20229;-74
2022/12/02 10:25:38;;;;;;;10.18;9.18;;;5.90;99.90;;;;;;5070266;28;20198;-74
2022/12/02 10:28:17;;;;;;;10.95;10.05;;;5.90;99.90;;;;;;5060911;28;20190;-74
2022/12/02 10:30:50;;;;;;;9.50;8.80;;;5.90;99.90;;;;;;5067862;28;20218;-74
2022/12/02 10:33:17;;;;;;;10.63;9.73;;;5.90;99.90;;;;;;5067989;28;20350;-74
2022/12/02 10:35:46;;;;;;;11.88;10.77;;;5.90;99.90;;;;;;5068328;28;20726;-73
2022/12/02 10:38:31;;;;;;;10.32;9.48;;;5.90;99.90;;;;;;5067800;28;20218;-73
2022/12/02 10:41:19;;;;;;;12.77;11.57;;;5.90;99.90;;;;;;5067383;28;20222;-76
2022/12/02 10:44:03;;;;;;;10.98;10.02;;;5.90;99.90;;;;;;5068696;28;20221;-74
2022/12/02 10:46:31;;;;;;;11.57;10.57;;;5.90;99.90;;;;;;5068027;28;20209;-76
2022/12/02 10:49:16;;;;;;;11.30;10.35;;;5.90;99.90;;;;;;5070321;28;20202;-74
2022/12/02 10:51:43;;;;;;;11.13;10.18;;;6.00;99.90;;;;;;5064979;28;20234;-74
2022/12/02 10:54:22;;;;;;;11.25;10.15;;;6.00;99.90;;;;;;5070070;28;20203;-74
2022/12/02 10:56:49;;;;;;;9.45;8.55;;;6.10;99.90;;;;;;5068410;28;20218;-75
2022/12/02 10:59:16;;;;;;;9.35;8.55;;;6.20;99.90;;;;;;5069862;28;20205;-75
2022/12/02 11:01:44;;;;;;;9.02;8.23;;;6.20;99.90;;;;;;5069146;28;20214;-75
2022/12/02 11:04:12;;;;;;;9.82;8.98;;;6.30;99.90;;;;;;5070706;28;20230;-74
2022/12/02 11:06:39;;;;;;;8.43;7.63;;;6.30;99.90;;;;;;5068252;28;20206;-74
2022/12/02 11:09:07;;;;;;;9.77;8.88;;;6.40;99.90;;;;;;5070185;28;20202;-74
2022/12/02 11:11:41;;;;;;;9.50;8.70;;;6.40;99.90;;;;;;5068682;28;20229;-74
2022/12/02 11:14:12;;;;;;;9.80;9.00;;;6.30;99.90;;;;;;5062501;28;20214;-74
2022/12/02 11:17:05;;;;;;;10.68;9.07;;;6.30;99.90;;;;;;5076938;28;20210;-77
2022/12/02 11:19:46;;;;;;;9.57;8.77;;;6.30;99.90;;;;;;5063654;28;20194;-74
2022/12/02 11:22:48;;;;;;;9.52;8.68;;;6.20;99.90;;;;;;5062689;28;20303;-75
2022/12/02 11:25:53;;;;;;;10.02;9.02;;;6.20;99.90;;;;;;5065358;28;20722;-75
2022/12/02 11:28:37;;;;;;;9.75;8.85;;;6.20;99.90;;;;;;5054804;28;20224;-74
2022/12/02 11:31:31;;;;;;;9.07;8.27;;;6.20;99.90;;;;;;5060706;28;20233;-74
2022/12/02 11:34:28;;;;;;;8.75;7.95;;;6.10;99.90;;;;;;5033425;28;20211;-75
2022/12/02 11:37:40;;;;;;;9.07;8.27;;;6.10;99.90;;;;;;5045646;28;20623;-74
2022/12/02 11:40:41;;;;;;;8.52;7.82;;;6.10;99.90;;;;;;5027406;28;20202;-75
2022/12/02 11:43:52;;;;;;;9.20;8.43;;;6.00;99.90;;;;;;5069157;28;20218;-74
2022/12/02 11:46:21;;;;;;;8.48;7.78;;;5.80;99.90;;;;;;5050591;28;20218;-74
2022/12/02 11:48:50;;;;;;;7.82;7.22;;;5.80;99.90;;;;;;5048315;28;20240;-76
2022/12/02 11:51:30;;;;;;;8.73;8.00;;;5.90;99.90;;;;;;5043178;28;20299;-74
2022/12/02 11:53:57;;;;;;;8.35;7.65;;;6.00;99.90;;;;;;5052979;28;20290;-74
2022/12/02 11:56:30;;;;;;;7.82;7.20;;;6.00;99.90;;;;;;5058632;28;20222;-74
2022/12/02 11:58:59;;;;;;;7.60;7.00;;;6.00;99.90;;;;;;5076750;28;20206;-76
2022/12/02 12:01:26;;;;;;;8.10;7.45;;;6.00;99.90;;;;;;5067842;28;20719;-74
2022/12/02 12:03:53;;;;;;;8.23;7.53;;;5.90;99.90;;;;;;5079154;28;20209;-74
2022/12/02 12:06:36;;;;;;;7.70;7.00;;;5.90;99.90;;;;;;5068441;28;20232;-75
2022/12/02 12:09:12;;;;;;;7.78;7.07;;;5.90;99.90;;;;;;5073793;28;20664;-74
2022/12/02 12:11:41;;;;;;;7.53;6.93;;;6.00;99.90;;;;;;5083764;28;20243;-74
2022/12/02 12:14:22;;;;;;;7.75;7.15;;;6.00;99.90;;;;;;5068027;28;20619;-74
2022/12/02 12:17:17;;;;;;;8.27;7.57;;;6.10;99.90;;;;;;5068642;28;20590;-73
2022/12/02 12:19:48;;;;;;;7.68;7.07;;;6.10;99.90;;;;;;5063361;28;20218;-73
2022/12/02 12:22:29;;;;;;;7.32;6.72;;;6.10;99.90;;;;;;5063022;28;20222;-74
2022/12/02 12:25:29;;;;;;;7.93;7.32;;;6.10;99.90;;;;;;5071861;28;20201;-74
2022/12/02 12:27:56;;;;;;;7.93;7.28;;;6.10;99.90;;;;;;5071829;28;20206;-71
2022/12/02 12:30:25;;;;;;;8.95;8.10;;;6.10;99.90;;;;;;5073223;28;20656;-73
2022/12/02 12:32:52;;;;;;;7.97;7.28;;;6.10;99.90;;;;;;5070960;28;20234;-73
2022/12/02 12:35:19;;;;;;;8.13;7.43;;;6.10;99.90;;;;;;5069874;28;20660;-73
2022/12/02 12:37:46;;;;;;;7.75;7.15;;;6.00;99.90;;;;;;5074338;28;20887;-73
2022/12/02 12:40:14;;;;;;;7.80;7.10;;;6.00;99.90;;;;;;5075239;28;20289;-75
2022/12/02 12:42:41;;;;;;;7.72;7.13;;;6.00;99.90;;;;;;5073352;28;20688;-75
2022/12/02 12:45:08;;;;;;;7.97;7.38;;;6.00;99.90;;;;;;5066138;28;20206;-74
2022/12/02 12:47:37;;;;;;;9.52;8.63;;;6.00;99.90;;;;;;5066871;28;20214;-72
2022/12/02 12:50:05;;;;;;;8.43;7.63;;;6.00;99.90;;;;;;5063830;28;20202;-74
2022/12/02 12:52:32;;;;;;;7.68;7.00;;;5.90;99.90;;;;;;5075639;28;20213;-76
2022/12/02 12:54:59;;;;;;;8.25;7.55;;;5.90;99.90;;;;;;5075083;28;20198;-74
2022/12/02 12:57:26;;;;;;;7.97;7.28;;;5.90;99.90;;;;;;5070157;28;20214;-75
2022/12/02 12:59:53;;;;;;;7.85;7.25;;;5.90;99.90;;;;;;5062177;28;20289;-74
2022/12/02 13:02:20;;;;;;;7.60;6.90;;;5.90;99.90;;;;;;5069941;28;20230;-75
2022/12/02 13:04:50;;;;;;;7.32;6.72;;;5.90;99.90;;;;;;5067825;28;20260;-74
2022/12/02 13:07:17;;;;;;;7.55;6.95;;;5.90;99.90;;;;;;5084657;28;20851;-75
2022/12/02 13:09:46;;;;;;;8.02;7.43;;;6.00;99.90;;;;;;5079268;22;20235;-73
2022/12/02 13:12:13;;;;;;;8.88;7.93;;;6.00;99.90;;;;;;5038806;22;20237;-73
2022/12/02 13:14:40;;;;;;;8.32;7.65;;;6.00;99.90;;;;;;5031609;28;20635;-73